Grissom ARB Airport
KGUS : now visible

Airfield :











YOU CAN JOIN US ON...

 
LOGIN :

Register | Disclaimer

   EN    FR    IT 

 









Legend :    VFR   Marginal VFR   IFR   Intensive IFR   Very Intensive IFR
Visi :
Ceiling :
>= 8 km
>= 3000ft
5 to 8 km
1000 to 3000 ft
1500m to 5 km
500 to 1000 ft
800 to 1500m
200 to 500 ft
< 800m
< 200 ft
Symbols :   Thunderstorms  Fog  Heavy snow  Heavy precipitations  Wind > 20 kt






- Airport Elevation : 812 ft


KGUS - Grissom ARB

CURRENT METAR :
  • 041256Z AUTO 04005KT 10SM FEW100 24/23 A3002 RMK AO2 SLP163 T02430234 $

EXPIRED METARs :
  • 041156Z AUTO 00000KT 10SM CLR 21/21 A3001 RMK AO2 SLP159 T02120212 10235 20199 50004 $
  • 041056Z AUTO 00000KT 10SM CLR 21/21 A3001 RMK AO2 SLP159 T02120212 $

TAF TAF KGUS
Valid from the 04 at 11:00 until the 05 at 17:00 UTC


041100Z 0411/0517 02006KT 9999 FEW060 QNH2995INS TX32/0419Z TN21/0411Z
KZAU FIR / North America



MET'MAP, your aeronautical weather chart ! - Copyright ORBIFLY December 2007 - Disclaimer

ORBIFLY MET'MAP TEAM :

Programming & Development : Alexandra Zaïnal
Concept & original design : Baudouin d'Aumeries
Assistance for programming : Marc-Olivier Méhu
Technical & hardware support : Manuel Goepfert

Contact : metmap@orbifly.com




SOURCES & CREDITS :

   NOAA       Earth
Advisory